createdAt,value
2023-12-09T00:01:01.393Z,84305.47
2023-12-09T00:03:29.012Z,84338.78
2023-12-09T00:05:56.478Z,84302.66
2023-12-09T00:08:23.867Z,84316.19
2023-12-09T00:10:51.392Z,84334.81
2023-12-09T00:13:18.793Z,84296.84
2023-12-09T00:15:46.104Z,84288.25
2023-12-09T00:18:14.318Z,84271.69
2023-12-09T00:20:41.837Z,84327.56
2023-12-09T00:23:10.490Z,84316.13
2023-12-09T00:25:38.106Z,84238.88
2023-12-09T00:28:05.661Z,84295.66
2023-12-09T00:30:33.259Z,84305.16
2023-12-09T00:33:00.957Z,84316.84
2023-12-09T00:35:28.468Z,84304.03
2023-12-09T00:37:55.741Z,84269.34
2023-12-09T00:40:23.861Z,84304.47
2023-12-09T00:42:51.109Z,84303.09
2023-12-09T00:45:18.619Z,84295.19
2023-12-09T00:47:46.090Z,84267.28
2023-12-09T00:50:13.576Z,84239.13
2023-12-09T00:52:40.839Z,84255.91
2023-12-09T00:55:08.611Z,84254.25
2023-12-09T00:57:35.849Z,84216.13
2023-12-09T01:00:05.618Z,84279.38
2023-12-09T01:02:33.471Z,84274.25
2023-12-09T01:05:00.841Z,84201.44
2023-12-09T01:07:28.456Z,84270.69
2023-12-09T01:09:55.790Z,84209.31
2023-12-09T01:12:23.179Z,84266.97
2023-12-09T01:14:50.673Z,84221.63
2023-12-09T01:17:18.172Z,84248.56
2023-12-09T01:19:45.605Z,84229.28
2023-12-09T01:22:13.713Z,84211.38
2023-12-09T01:24:41.129Z,84131.47
2023-12-09T01:27:08.524Z,84222.84
2023-12-09T01:29:37.811Z,84164.25
2023-12-09T01:32:05.364Z,84257.47
2023-12-09T01:34:32.915Z,84245.38
2023-12-09T01:37:00.656Z,84247.28
2023-12-09T01:39:28.701Z,84267.75
2023-12-09T01:41:57.463Z,84218.44
2023-12-09T01:44:24.702Z,84191.00
2023-12-09T01:46:52.242Z,84256.59
2023-12-09T01:49:19.625Z,84208.91
2023-12-09T01:51:47.275Z,84255.44
2023-12-09T01:54:15.856Z,84214.03
2023-12-09T01:56:43.594Z,84226.59
2023-12-09T01:59:10.874Z,84217.53
2023-12-09T02:01:39.072Z,84197.06
2023-12-09T02:04:07.495Z,84169.19
2023-12-09T02:06:35.246Z,84093.22
2023-12-09T02:09:03.386Z,84231.53
2023-12-09T02:11:36.524Z,84233.66
2023-12-09T02:14:12.276Z,84226.22
2023-12-09T02:16:45.353Z,84237.41
2023-12-09T02:19:14.700Z,84237.63
2023-12-09T02:22:05.005Z,84254.88
2023-12-09T02:24:33.515Z,84229.75
2023-12-09T02:27:09.939Z,84257.69
2023-12-09T02:29:53.994Z,84269.78
2023-12-09T02:32:23.751Z,84262.56
2023-12-09T02:34:53.431Z,84261.88
2023-12-09T02:37:22.771Z,84217.41
2023-12-09T02:39:50.395Z,84162.97
2023-12-09T02:42:19.121Z,84231.63
2023-12-09T02:44:46.966Z,84251.16
2023-12-09T02:47:15.840Z,84211.38
2023-12-09T02:49:44.378Z,84236.50
2023-12-09T02:52:12.488Z,84261.88
2023-12-09T02:54:39.969Z,84230.47
2023-12-09T02:57:07.325Z,84207.41
2023-12-09T02:59:35.519Z,84222.78
2023-12-09T03:02:02.763Z,84229.97
2023-12-09T03:04:30.354Z,84230.91
2023-12-09T03:06:59.015Z,84184.38
2023-12-09T03:09:26.462Z,84224.41
2023-12-09T03:11:56.003Z,84171.13
2023-12-09T03:14:25.179Z,84204.16
2023-12-09T03:16:52.439Z,84245.59
2023-12-09T03:19:19.872Z,84186.47
2023-12-09T03:21:47.204Z,84094.13
2023-12-09T03:24:14.604Z,84245.81
2023-12-09T03:26:41.854Z,84058.34
2023-12-09T03:29:09.255Z,84183.00
2023-12-09T03:31:42.196Z,84258.13
2023-12-09T03:34:09.878Z,84224.88
2023-12-09T03:39:05.202Z,84257.91
2023-12-09T03:41:32.464Z,84267.22
2023-12-09T03:44:00.086Z,84263.03
2023-12-09T03:46:27.333Z,84245.13
2023-12-09T03:51:22.344Z,84178.81
2023-12-09T03:53:50.129Z,84237.44
2023-12-09T03:56:23.264Z,84238.13
2023-12-09T03:58:51.705Z,84266.06
2023-12-09T04:01:19.612Z,84262.81
2023-12-09T04:03:47.098Z,84260.00
2023-12-09T04:06:14.414Z,84239.31
2023-12-09T04:08:41.878Z,84268.63
2023-12-09T04:11:09.250Z,84250.94
2023-12-09T04:13:36.924Z,84252.78
2023-12-09T04:16:06.008Z,84220.47
2023-12-09T04:18:33.604Z,84184.38
2023-12-09T04:21:01.128Z,84196.47
2023-12-09T04:23:28.498Z,84265.81
2023-12-09T04:25:55.803Z,84244.88
2023-12-09T04:28:23.417Z,84246.50
2023-12-09T04:30:50.645Z,84233.25
2023-12-09T04:33:18.089Z,84226.94
2023-12-09T04:35:45.433Z,84225.78
2023-12-09T04:38:12.928Z,84228.38
2023-12-09T04:40:40.390Z,84239.28
2023-12-09T04:43:08.009Z,84234.16
2023-12-09T04:45:35.455Z,84195.06
2023-12-09T04:48:04.981Z,84226.50
2023-12-09T04:50:32.465Z,84228.81
2023-12-09T04:52:59.761Z,84246.72
2023-12-09T04:55:27.931Z,84159.28
2023-12-09T04:57:56.030Z,84158.09
2023-12-09T05:00:23.398Z,84175.31
2023-12-09T05:02:52.269Z,84218.81
2023-12-09T05:05:20.433Z,84225.31
2023-12-09T05:07:49.086Z,84188.81
2023-12-09T05:10:16.685Z,84197.19
2023-12-09T05:12:44.028Z,84170.41
2023-12-09T05:15:12.314Z,84055.31
2023-12-09T05:17:39.748Z,84219.28
2023-12-09T05:20:08.148Z,84199.28
2023-12-09T05:22:35.416Z,84250.25
2023-12-09T05:25:03.815Z,84208.81
2023-12-09T05:27:31.159Z,84256.28
2023-12-09T05:29:58.550Z,84181.59
2023-12-09T05:32:26.081Z,84192.97
2023-12-09T05:34:53.697Z,84261.38
2023-12-09T05:37:23.017Z,84197.84
2023-12-09T05:39:50.549Z,84202.94
2023-12-09T05:42:18.008Z,84245.50
2023-12-09T05:44:45.407Z,84201.09
2023-12-09T05:47:12.810Z,84264.09
2023-12-09T05:49:40.345Z,84256.16
2023-12-09T05:52:07.654Z,84217.09
2023-12-09T05:54:38.408Z,84240.09
2023-12-09T05:57:06.425Z,84255.88
2023-12-09T05:59:33.654Z,84203.25
2023-12-09T06:02:01.271Z,84221.63
2023-12-09T06:04:28.633Z,84229.28
2023-12-09T06:06:56.104Z,84244.84
2023-12-09T06:09:23.608Z,84238.75
2023-12-09T06:11:52.867Z,84205.69
2023-12-09T06:14:20.157Z,84151.75
2023-12-09T06:16:47.640Z,84239.56
2023-12-09T06:19:15.148Z,84223.28
2023-12-09T06:21:42.581Z,84181.53
2023-12-09T06:24:09.973Z,84190.78
2023-12-09T06:26:44.093Z,84194.44
2023-12-09T06:29:16.122Z,84196.69
2023-12-09T06:31:44.300Z,84190.91
2023-12-09T06:34:12.203Z,84216.16
2023-12-09T06:36:39.814Z,84212.13
2023-12-09T06:39:07.211Z,84225.13
2023-12-09T06:41:34.576Z,84112.22
2023-12-09T06:44:01.940Z,84236.47
2023-12-09T06:46:29.294Z,84214.81
2023-12-09T06:48:56.699Z,84210.16
2023-12-09T06:51:24.271Z,84220.09
2023-12-09T06:53:51.596Z,84224.06
2023-12-09T06:56:21.577Z,84181.13
2023-12-09T06:58:49.539Z,84233.16
2023-12-09T07:01:29.661Z,84221.66
2023-12-09T07:03:57.658Z,84181.91
2023-12-09T07:06:30.670Z,84180.47
2023-12-09T07:08:58.760Z,84184.63
2023-12-09T07:11:26.223Z,84192.97
2023-12-09T07:13:53.630Z,84223.09
2023-12-09T07:16:21.052Z,84181.31
2023-12-09T07:18:52.849Z,84181.44
2023-12-09T07:21:20.456Z,84211.44
2023-12-09T07:23:47.842Z,84183.50
2023-12-09T07:26:15.864Z,84204.09
2023-12-09T07:28:44.448Z,84179.44
2023-12-09T07:31:12.762Z,84145.16
2023-12-09T07:33:40.064Z,84200.28
2023-12-09T07:36:08.524Z,84189.88
2023-12-09T07:38:36.143Z,84174.38
2023-12-09T07:41:04.021Z,84174.09
2023-12-09T07:43:33.032Z,84178.50
2023-12-09T07:46:00.570Z,84166.66
2023-12-09T07:48:28.988Z,84140.06
2023-12-09T07:50:56.488Z,84130.81
2023-12-09T07:53:24.626Z,84155.09
2023-12-09T07:55:52.113Z,84118.16
2023-12-09T07:58:19.519Z,84143.53
2023-12-09T08:00:47.196Z,84134.22
2023-12-09T08:03:14.666Z,84087.22
2023-12-09T08:05:43.623Z,84153.91
2023-12-09T08:08:12.562Z,84084.16
2023-12-09T08:10:39.924Z,84137.16
2023-12-09T08:13:09.956Z,84114.00
2023-12-09T08:15:38.810Z,83978.53
2023-12-09T08:18:06.521Z,84114.44
2023-12-09T08:20:35.925Z,84020.34
2023-12-09T08:23:04.982Z,84113.47
2023-12-09T08:25:32.204Z,84095.81
2023-12-09T08:27:59.612Z,84136.13
2023-12-09T08:30:27.032Z,84086.47
2023-12-09T08:32:54.938Z,84107.16
2023-12-09T08:35:22.525Z,84108.19
2023-12-09T08:37:50.296Z,84116.28
2023-12-09T08:40:18.627Z,84113.41
2023-12-09T08:42:47.163Z,84108.53
2023-12-09T08:45:16.773Z,84100.84
2023-12-09T08:47:45.718Z,84107.22
2023-12-09T08:52:45.264Z,84095.28
2023-12-09T08:55:12.503Z,84087.97
2023-12-09T08:57:40.063Z,84053.41
2023-12-09T09:00:09.805Z,84069.06
2023-12-09T09:02:38.083Z,84084.66
2023-12-09T09:05:06.391Z,84088.00
2023-12-09T09:07:37.821Z,84093.84
2023-12-09T09:10:05.877Z,84076.22
2023-12-09T09:12:33.216Z,84055.78
2023-12-09T09:15:04.597Z,84087.41
2023-12-09T09:17:36.652Z,84068.84
2023-12-09T09:20:06.993Z,84081.75
2023-12-09T09:22:35.368Z,84074.19
2023-12-09T09:25:02.799Z,84077.47
2023-12-09T09:27:30.439Z,84045.00
2023-12-09T09:29:57.890Z,84079.97
2023-12-09T09:32:26.016Z,84068.44
2023-12-09T09:34:56.100Z,84079.34
2023-12-09T09:37:24.571Z,84078.88
2023-12-09T09:39:52.743Z,84075.53
2023-12-09T09:42:37.977Z,84076.28
2023-12-09T09:45:27.137Z,84054.53
2023-12-09T09:48:00.448Z,84072.72
2023-12-09T09:50:28.274Z,84064.09
2023-12-09T09:52:55.730Z,84031.84
2023-12-09T09:55:24.338Z,84046.34
2023-12-09T09:57:52.337Z,84054.69
2023-12-09T10:00:21.078Z,84040.25
2023-12-09T10:02:52.408Z,84049.09
2023-12-09T10:05:23.732Z,84051.94
2023-12-09T10:07:53.245Z,84049.16
2023-12-09T10:10:20.938Z,84042.34
2023-12-09T10:12:48.398Z,84037.78
2023-12-09T10:15:15.741Z,84046.09
2023-12-09T10:17:44.025Z,84040.97
2023-12-09T10:20:12.430Z,84026.91
2023-12-09T10:22:41.271Z,84019.88
2023-12-09T10:25:09.229Z,84024.47
2023-12-09T10:27:36.657Z,84016.63
2023-12-09T10:30:04.897Z,84002.38
2023-12-09T10:32:34.230Z,84010.91
2023-12-09T10:35:04.522Z,84005.47
2023-12-09T10:37:33.304Z,84000.72
2023-12-09T10:40:05.334Z,83993.50
2023-12-09T10:42:33.092Z,83995.28
2023-12-09T10:45:05.089Z,83966.25
2023-12-09T10:47:32.640Z,83981.13
2023-12-09T10:50:00.084Z,83977.66
2023-12-09T10:52:27.800Z,83975.09
2023-12-09T10:54:55.388Z,83969.94
2023-12-09T10:57:25.835Z,83972.34
2023-12-09T10:59:55.272Z,83971.13
2023-12-09T11:02:22.981Z,83928.00
2023-12-09T11:04:51.826Z,83954.09
2023-12-09T11:07:19.753Z,83910.50
2023-12-09T11:09:47.866Z,83910.69
2023-12-09T11:12:29.749Z,83911.31
2023-12-09T11:15:09.090Z,83923.59
2023-12-09T11:17:39.770Z,83930.63
2023-12-09T11:20:16.159Z,83928.16
2023-12-09T11:22:46.722Z,83937.84
2023-12-09T11:25:27.500Z,83928.66
2023-12-09T11:27:57.226Z,83935.19
2023-12-09T11:30:38.880Z,83943.59
2023-12-09T11:33:07.454Z,83942.81
2023-12-09T11:35:36.451Z,83944.59
2023-12-09T11:38:06.964Z,83937.97
2023-12-09T11:40:34.754Z,83945.91
2023-12-09T11:43:09.672Z,83943.69
2023-12-09T11:45:38.458Z,83940.72
2023-12-09T11:48:06.896Z,83934.00
2023-12-09T11:50:34.584Z,83943.00
2023-12-09T11:53:01.846Z,83909.09
2023-12-09T11:55:30.678Z,83933.19
2023-12-09T11:57:58.240Z,83935.97
2023-12-09T12:00:25.533Z,83936.56
2023-12-09T12:02:53.010Z,83912.09
2023-12-09T12:05:21.287Z,83924.19
2023-12-09T12:07:49.151Z,83908.63
2023-12-09T12:10:16.565Z,83907.53
2023-12-09T12:12:45.821Z,83930.31
2023-12-09T12:15:14.072Z,83926.75
2023-12-09T12:17:45.363Z,83914.16
2023-12-09T12:20:14.132Z,83938.22
2023-12-09T12:22:42.388Z,83928.16
2023-12-09T12:25:10.891Z,83919.69
2023-12-09T12:27:46.628Z,83944.78
2023-12-09T12:30:17.376Z,83940.59
2023-12-09T12:32:56.530Z,83931.50
2023-12-09T12:35:26.479Z,83926.44
2023-12-09T12:37:56.516Z,83937.13
2023-12-09T12:40:24.068Z,83928.94
2023-12-09T12:42:51.617Z,83943.91
2023-12-09T12:45:27.048Z,83929.22
2023-12-09T12:47:56.400Z,83952.00
2023-12-09T12:50:23.785Z,83924.97
2023-12-09T12:52:52.336Z,83936.06
2023-12-09T12:55:19.821Z,83921.78
2023-12-09T12:57:47.602Z,83938.59
2023-12-09T13:00:15.979Z,83921.28
2023-12-09T13:02:44.716Z,83930.88
2023-12-09T13:05:12.776Z,83875.25
2023-12-09T13:07:45.068Z,83930.06
2023-12-09T13:10:13.096Z,83930.94
2023-12-09T13:12:40.634Z,83923.91
2023-12-09T13:15:08.749Z,83918.38
2023-12-09T13:17:36.852Z,83924.78
2023-12-09T13:20:04.685Z,83913.38
2023-12-09T13:22:32.063Z,83926.75
2023-12-09T13:24:59.571Z,83922.59
2023-12-09T13:27:27.932Z,83907.28
2023-12-09T13:29:55.915Z,83903.72
2023-12-09T13:32:23.177Z,83895.13
2023-12-09T13:34:52.572Z,83914.13
2023-12-09T13:37:20.205Z,83924.06
2023-12-09T13:39:47.681Z,83917.94
2023-12-09T13:42:16.323Z,83917.88
2023-12-09T13:44:43.977Z,83894.13
2023-12-09T13:47:11.346Z,83916.22
2023-12-09T13:49:38.864Z,83905.69
2023-12-09T13:52:06.770Z,83912.50
2023-12-09T13:54:34.610Z,83924.09
2023-12-09T13:57:02.103Z,83929.41
2023-12-09T13:59:29.681Z,83906.00
2023-12-09T14:01:57.824Z,83924.41
2023-12-09T14:04:25.176Z,83934.78
2023-12-09T14:06:52.632Z,83910.88
2023-12-09T14:09:20.213Z,83902.78
2023-12-09T14:11:47.507Z,83930.13
2023-12-09T14:14:15.274Z,83895.00
2023-12-09T14:16:44.070Z,83933.72
2023-12-09T14:19:14.502Z,83920.28
2023-12-09T14:21:42.004Z,83934.50
2023-12-09T14:24:09.996Z,83915.56
2023-12-09T14:26:37.701Z,83926.00
2023-12-09T14:29:05.102Z,83904.88
2023-12-09T14:31:32.540Z,83883.31
2023-12-09T14:34:03.182Z,83917.13
2023-12-09T14:36:31.255Z,83910.34
2023-12-09T14:38:58.653Z,83932.78
2023-12-09T14:41:26.097Z,83930.00
2023-12-09T14:43:59.679Z,83927.03
2023-12-09T14:46:33.139Z,83787.44
2023-12-09T14:49:01.588Z,83899.97
2023-12-09T14:51:40.242Z,83912.28
2023-12-09T14:54:16.525Z,83850.06
2023-12-09T14:56:46.912Z,83913.97
2023-12-09T14:59:16.715Z,83937.31
2023-12-09T15:01:50.408Z,83908.09
2023-12-09T15:04:18.653Z,83934.22
2023-12-09T15:06:48.153Z,83921.47
2023-12-09T15:09:17.602Z,83929.22
2023-12-09T15:11:45.010Z,83936.16
2023-12-09T15:14:12.510Z,83932.44
2023-12-09T15:16:39.976Z,83911.72
2023-12-09T15:19:09.975Z,83915.84
2023-12-09T15:21:37.931Z,83901.47
2023-12-09T15:24:06.924Z,83931.59
2023-12-09T15:26:35.240Z,83926.16
2023-12-09T15:29:02.579Z,83934.13
2023-12-09T15:31:31.842Z,83923.81
2023-12-09T15:34:00.483Z,83931.72
2023-12-09T15:36:28.484Z,83896.78
2023-12-09T15:38:55.922Z,83934.28
2023-12-09T15:41:23.466Z,83893.53
2023-12-09T15:43:51.226Z,83918.25
2023-12-09T15:46:19.089Z,83932.75
2023-12-09T15:48:46.831Z,83898.66
2023-12-09T15:51:15.506Z,83925.41
2023-12-09T15:53:43.143Z,83912.63
2023-12-09T15:56:10.908Z,83883.41
2023-12-09T15:58:38.379Z,83896.28
2023-12-09T16:01:06.153Z,83915.66
2023-12-09T16:03:33.869Z,83876.81
2023-12-09T16:06:02.368Z,83919.13
2023-12-09T16:08:29.792Z,83913.50
2023-12-09T16:10:57.296Z,83910.72
2023-12-09T16:13:25.024Z,83857.84
2023-12-09T16:15:53.073Z,83867.88
2023-12-09T16:18:20.681Z,83901.06
2023-12-09T16:20:48.096Z,83876.44
2023-12-09T16:23:15.650Z,83899.41
2023-12-09T16:25:43.149Z,83901.41
2023-12-09T16:28:10.569Z,83908.81
2023-12-09T16:30:38.623Z,83903.53
2023-12-09T16:33:06.261Z,83899.41
2023-12-09T16:35:33.753Z,83877.34
2023-12-09T16:38:01.115Z,83889.22
2023-12-09T16:40:28.877Z,83889.22
2023-12-09T16:42:56.509Z,83878.28
2023-12-09T16:45:24.258Z,83885.41
2023-12-09T16:47:52.769Z,83894.09
2023-12-09T16:50:20.326Z,83900.81
2023-12-09T16:52:47.627Z,83899.69
2023-12-09T16:55:16.492Z,83907.22
2023-12-09T16:57:45.031Z,83903.69
2023-12-09T17:00:12.790Z,83916.41
2023-12-09T17:02:40.346Z,83903.16
2023-12-09T17:05:11.345Z,83913.56
2023-12-09T17:07:39.105Z,83906.75
2023-12-09T17:10:08.881Z,83917.94
2023-12-09T17:12:38.104Z,83912.38
2023-12-09T17:15:05.853Z,83915.00
2023-12-09T17:17:33.482Z,83919.34
2023-12-09T17:20:00.845Z,83832.59
2023-12-09T17:22:32.466Z,83849.53
2023-12-09T17:25:00.105Z,83908.94
2023-12-09T17:27:27.882Z,83825.78
2023-12-09T17:29:55.309Z,83922.78
2023-12-09T17:32:22.898Z,83915.25
2023-12-09T17:34:50.959Z,83913.03
2023-12-09T17:37:18.526Z,83911.66
2023-12-09T17:39:46.050Z,83916.03
2023-12-09T17:42:13.730Z,83906.38
2023-12-09T17:44:41.186Z,83900.47
2023-12-09T17:47:08.575Z,83903.44
2023-12-09T17:49:36.125Z,83905.53
2023-12-09T17:52:03.639Z,83903.25
2023-12-09T17:54:31.280Z,83907.13
2023-12-09T17:56:58.628Z,83912.97
2023-12-09T17:59:26.167Z,83910.63
2023-12-09T18:01:54.395Z,83918.38
2023-12-09T18:04:21.742Z,83914.69
2023-12-09T18:06:49.113Z,83917.53
2023-12-09T18:09:16.624Z,83892.13
2023-12-09T18:11:44.240Z,83916.50
2023-12-09T18:14:11.651Z,83929.63
2023-12-09T18:16:39.103Z,83917.94
2023-12-09T18:19:06.740Z,83910.91
2023-12-09T18:21:34.593Z,83923.00
2023-12-09T18:24:02.275Z,83916.28
2023-12-09T18:26:32.861Z,83915.00
2023-12-09T18:29:01.073Z,83896.06
2023-12-09T18:31:29.207Z,83924.13
2023-12-09T18:33:57.734Z,83926.66
2023-12-09T18:36:25.467Z,83925.00
2023-12-09T18:38:53.009Z,83921.97
2023-12-09T18:41:20.543Z,83922.66
2023-12-09T18:43:50.125Z,83889.22
2023-12-09T18:46:17.967Z,83930.44
2023-12-09T18:48:45.648Z,83924.03
2023-12-09T18:51:13.184Z,83932.25
2023-12-09T18:53:40.585Z,83944.91
2023-12-09T18:56:08.285Z,83944.91
2023-12-09T18:58:35.749Z,83938.19
2023-12-09T19:01:08.040Z,83933.28
2023-12-09T19:03:39.324Z,83942.56
2023-12-09T19:06:07.513Z,83939.22
2023-12-09T19:08:35.164Z,83900.88
2023-12-09T19:11:02.578Z,83938.69
2023-12-09T19:13:30.037Z,83942.41
2023-12-09T19:15:59.736Z,83929.16
2023-12-09T19:18:27.277Z,83878.50
2023-12-09T19:20:54.729Z,83946.03
2023-12-09T19:23:22.164Z,83939.84
2023-12-09T19:25:49.636Z,83907.13
2023-12-09T19:28:17.281Z,83958.69
2023-12-09T19:30:44.728Z,83950.84
2023-12-09T19:33:12.544Z,83950.47
2023-12-09T19:35:40.059Z,83933.66
2023-12-09T19:38:07.587Z,83928.78
2023-12-09T19:40:35.760Z,83939.47
2023-12-09T19:43:03.025Z,83950.06
2023-12-09T19:45:30.336Z,83942.53
2023-12-09T19:47:58.928Z,83956.44
2023-12-09T19:50:26.337Z,83949.50
2023-12-09T19:52:53.916Z,83950.63
2023-12-09T19:55:21.432Z,83854.72
2023-12-09T19:57:49.025Z,83934.84
2023-12-09T20:00:16.651Z,83950.91
2023-12-09T20:02:45.766Z,83911.19
2023-12-09T20:05:13.908Z,83966.09
2023-12-09T20:07:41.376Z,83964.03
2023-12-09T20:10:09.390Z,83921.19
2023-12-09T20:12:36.782Z,83937.97
2023-12-09T20:15:07.663Z,83954.22
2023-12-09T20:17:35.307Z,83962.06
2023-12-09T20:20:02.825Z,83895.34
2023-12-09T20:22:31.827Z,83973.84
2023-12-09T20:24:59.436Z,83971.78
2023-12-09T20:27:26.978Z,83931.31
2023-12-09T20:29:55.521Z,83976.94
2023-12-09T20:32:23.298Z,83975.75
2023-12-09T20:34:50.852Z,83896.84
2023-12-09T20:37:18.427Z,83903.81
2023-12-09T20:39:45.822Z,83875.13
2023-12-09T20:42:13.402Z,83985.41
2023-12-09T20:44:41.584Z,83973.75
2023-12-09T20:47:08.940Z,83971.72
2023-12-09T20:49:37.359Z,83954.28
2023-12-09T20:52:05.177Z,83905.34
2023-12-09T20:54:32.643Z,83968.72
2023-12-09T20:57:00.182Z,83966.56
2023-12-09T20:59:27.728Z,83890.88
2023-12-09T21:01:57.043Z,83876.81
2023-12-09T21:04:24.656Z,83949.41
2023-12-09T21:06:52.443Z,83859.66
2023-12-09T21:09:22.570Z,83931.16
2023-12-09T21:11:50.123Z,83956.16
2023-12-09T21:14:17.878Z,83960.06
2023-12-09T21:16:45.290Z,83959.91
2023-12-09T21:19:13.248Z,83959.91
2023-12-09T21:21:40.992Z,83959.03
2023-12-09T21:24:08.632Z,83951.44
2023-12-09T21:26:39.265Z,83965.03
2023-12-09T21:29:08.074Z,83939.97
2023-12-09T21:31:35.466Z,83963.94
2023-12-09T21:34:03.838Z,83956.84
2023-12-09T21:36:31.331Z,83951.66
2023-12-09T21:38:58.789Z,83951.19
2023-12-09T21:41:26.121Z,83947.06
2023-12-09T21:43:53.548Z,83956.09
2023-12-09T21:46:21.568Z,83954.41
2023-12-09T21:48:49.603Z,83956.03
2023-12-09T21:51:17.938Z,83882.13
2023-12-09T21:53:45.665Z,83934.41
2023-12-09T21:56:26.298Z,83946.44
2023-12-09T21:58:54.151Z,83933.19
2023-12-09T22:01:22.279Z,83938.38
2023-12-09T22:03:50.629Z,83947.25
2023-12-09T22:06:17.795Z,83957.53
2023-12-09T22:08:45.757Z,83952.25
2023-12-09T22:11:13.690Z,83958.59
2023-12-09T22:13:41.826Z,83953.94
2023-12-09T22:16:09.669Z,83953.50
2023-12-09T22:18:37.690Z,83954.22
2023-12-09T22:21:05.428Z,83949.06
2023-12-09T22:23:32.801Z,83944.00
2023-12-09T22:26:00.240Z,83933.38
2023-12-09T22:28:31.698Z,83940.22
2023-12-09T22:30:59.171Z,83936.63
2023-12-09T22:33:26.634Z,83932.25
2023-12-09T22:35:54.191Z,83942.25
2023-12-09T22:38:21.476Z,83933.63
2023-12-09T22:40:49.042Z,83942.25
2023-12-09T22:43:16.457Z,83892.16
2023-12-09T22:45:43.863Z,83946.56
2023-12-09T22:48:11.683Z,83936.16
2023-12-09T22:50:39.126Z,83910.59
2023-12-09T22:53:06.578Z,83922.00
2023-12-09T22:55:34.332Z,83928.91
2023-12-09T22:58:01.701Z,83873.13
2023-12-09T23:00:33.292Z,83938.50
2023-12-09T23:03:02.867Z,83927.66
2023-12-09T23:05:30.290Z,83940.13
2023-12-09T23:07:58.284Z,83941.72
2023-12-09T23:10:25.875Z,83947.75
2023-12-09T23:12:53.394Z,83950.78
2023-12-09T23:15:22.353Z,83947.94
2023-12-09T23:17:50.183Z,83937.47
2023-12-09T23:20:17.683Z,83928.59
2023-12-09T23:22:45.111Z,83935.88
2023-12-09T23:25:12.512Z,83936.63
2023-12-09T23:27:39.907Z,83935.03
2023-12-09T23:30:08.049Z,83939.72
2023-12-09T23:32:35.475Z,83943.47
2023-12-09T23:35:02.760Z,83952.38
2023-12-09T23:37:30.319Z,83959.84
2023-12-09T23:39:57.660Z,83944.84
2023-12-09T23:42:25.100Z,83920.84
2023-12-09T23:44:52.367Z,83899.34
2023-12-09T23:47:19.858Z,83949.09
2023-12-09T23:49:47.423Z,83955.13
2023-12-09T23:52:14.973Z,83953.34
2023-12-09T23:54:42.515Z,83946.66
2023-12-09T23:57:10.122Z,83964.50
2023-12-09T23:59:37.439Z,83961.25
